createdAt,value
2018-04-23T00:00:42.985Z,10.07
2018-04-23T00:03:25.701Z,7.97
2018-04-23T00:05:54.245Z,8.13
2018-04-23T00:08:23.069Z,6.67
2018-04-23T00:10:52.823Z,8.03
2018-04-23T00:13:21.374Z,8.47
2018-04-23T00:15:50.683Z,11.33
2018-04-23T00:18:31.923Z,6.27
2018-04-23T00:21:01.489Z,9.37
2018-04-23T00:23:29.988Z,9.03
2018-04-23T00:25:58.510Z,9.37
2018-04-23T00:28:28.432Z,9.53
2018-04-23T00:30:57.690Z,10.27
2018-04-23T00:33:30.860Z,9.47
2018-04-23T00:35:59.694Z,10.10
2018-04-23T00:38:41.516Z,9.30
2018-04-23T00:41:10.704Z,11.80
2018-04-23T00:43:39.959Z,11.07
2018-04-23T00:46:08.462Z,13.63
2018-04-23T00:48:38.311Z,11.77
2018-04-23T00:51:08.379Z,10.77
2018-04-23T00:53:40.906Z,12.07
2018-04-23T00:56:10.822Z,11.70
2018-04-23T00:58:43.287Z,13.10
2018-04-23T01:01:12.925Z,13.20
2018-04-23T01:03:45.229Z,16.90
2018-04-23T01:06:13.711Z,15.30
2018-04-23T01:08:47.253Z,14.83
2018-04-23T01:11:16.053Z,15.80
2018-04-23T01:13:49.273Z,15.47
2018-04-23T01:16:17.798Z,16.93
2018-04-23T01:19:00.437Z,16.27
2018-04-23T01:21:29.265Z,19.00
2018-04-23T01:23:57.781Z,15.90
2018-04-23T01:26:26.296Z,15.20
2018-04-23T01:28:57.688Z,20.00
2018-04-23T01:31:27.698Z,20.03
2018-04-23T01:33:59.609Z,17.27
2018-04-23T01:36:29.524Z,14.83
2018-04-23T01:39:02.916Z,16.43
2018-04-23T01:41:31.445Z,16.23
2018-04-23T01:44:03.885Z,15.10
2018-04-23T01:46:33.180Z,14.57
2018-04-23T01:49:05.850Z,17.13
2018-04-23T01:51:35.877Z,16.67
2018-04-23T01:54:17.822Z,22.83
2018-04-23T01:56:47.658Z,19.57
2018-04-23T01:59:16.203Z,15.33
2018-04-23T02:01:44.824Z,17.67
2018-04-23T02:04:15.050Z,18.23
2018-04-23T02:06:43.548Z,16.97
2018-04-23T02:09:26.231Z,14.20
2018-04-23T02:11:55.772Z,19.10
2018-04-23T02:14:24.285Z,20.43
2018-04-23T02:16:53.999Z,15.73
2018-04-23T02:19:24.300Z,16.37
2018-04-23T02:21:53.582Z,16.90
2018-04-23T02:24:26.685Z,17.73
2018-04-23T02:26:55.565Z,18.00
2018-04-23T02:29:36.555Z,14.80
2018-04-23T02:32:05.101Z,17.20
2018-04-23T02:47:41.061Z,15.67
2018-04-23T02:50:10.709Z,16.50
2018-04-23T02:52:40.570Z,17.73
2018-04-23T02:55:09.852Z,13.80
2018-04-23T02:57:39.487Z,17.07
2018-04-23T03:00:09.009Z,19.33
2018-04-23T03:18:15.273Z,17.23
2018-04-23T03:20:49.686Z,12.27
2018-04-23T03:23:18.211Z,13.07
2018-04-23T03:28:19.477Z,14.17
2018-04-23T03:30:48.736Z,13.90
2018-04-23T03:33:18.244Z,15.27
2018-04-23T03:35:48.176Z,14.33
2018-04-23T03:38:17.805Z,12.70
2018-04-23T03:40:46.723Z,12.77
2018-04-23T03:43:16.273Z,14.00
2018-04-23T03:45:44.760Z,12.40
2018-04-23T03:48:13.315Z,12.77
2018-04-23T03:50:42.150Z,16.03
2018-04-23T03:53:11.452Z,14.07
2018-04-23T03:55:40.748Z,14.73
2018-04-23T03:58:11.515Z,11.93
2018-04-23T04:00:41.244Z,14.13
2018-04-23T04:03:22.668Z,14.97
2018-04-23T04:05:51.445Z,11.70
2018-04-23T04:08:19.954Z,16.83
2018-04-23T04:10:49.228Z,11.63
2018-04-23T04:13:29.494Z,19.03
2018-04-23T04:17:12.003Z,15.73
2018-04-23T04:19:41.456Z,16.87
2018-04-23T04:22:11.172Z,16.77
2018-04-23T04:24:41.826Z,13.00
2018-04-23T04:27:12.463Z,15.63
2018-04-23T04:29:41.323Z,15.03
2018-04-23T04:32:09.858Z,13.33
2018-04-23T04:34:39.545Z,11.57
2018-04-23T04:37:08.077Z,11.67
2018-04-23T04:39:38.096Z,14.67
2018-04-23T04:42:08.484Z,10.77
2018-04-23T04:44:38.141Z,15.97
2018-04-23T04:47:06.713Z,13.93
2018-04-23T04:49:35.963Z,20.27
2018-04-23T04:52:04.533Z,11.83
2018-04-23T04:54:36.769Z,14.97
2018-04-23T04:57:06.752Z,16.23
2018-04-23T04:59:40.241Z,16.87
2018-04-23T05:02:09.961Z,14.23
2018-04-23T05:04:40.886Z,19.13
2018-04-23T05:07:10.922Z,13.03
2018-04-23T05:09:51.923Z,17.63
2018-04-23T05:12:22.516Z,11.20
2018-04-23T05:14:51.476Z,14.33
2018-04-23T05:17:20.813Z,15.80
2018-04-23T05:19:50.186Z,13.17
2018-04-23T05:22:20.028Z,13.80
2018-04-23T05:24:50.406Z,12.23
2018-04-23T05:27:20.145Z,15.27
2018-04-23T05:29:56.759Z,12.93
2018-04-23T05:32:25.672Z,14.97
2018-04-23T05:34:55.395Z,14.63
2018-04-23T05:37:24.935Z,12.10
2018-04-23T05:39:58.126Z,10.40
2018-04-23T05:42:27.922Z,11.73
2018-04-23T05:45:00.756Z,15.50
2018-04-23T05:47:29.295Z,11.03
2018-04-23T05:50:03.307Z,12.27
2018-04-23T05:52:33.363Z,13.37
2018-04-23T05:55:06.088Z,10.80
2018-04-23T05:57:36.120Z,12.83
2018-04-23T06:00:17.962Z,12.47
2018-04-23T06:02:46.749Z,12.37
2018-04-23T06:05:16.187Z,15.33
2018-04-23T06:07:44.713Z,13.43
2018-04-23T06:10:14.290Z,10.90
2018-04-23T06:12:43.233Z,10.67
2018-04-23T06:15:16.360Z,11.97
2018-04-23T06:17:45.149Z,11.47
2018-04-23T06:20:18.760Z,11.20
2018-04-23T06:22:48.064Z,10.50
2018-04-23T06:25:21.140Z,12.17
2018-04-23T06:27:49.651Z,13.50
2018-04-23T06:30:23.314Z,9.70
2018-04-23T06:32:51.848Z,13.87
2018-04-23T06:35:34.323Z,13.23
2018-04-23T06:38:03.252Z,14.97
2018-04-23T06:40:31.808Z,11.47
2018-04-23T06:43:00.317Z,15.57
2018-04-23T06:45:29.996Z,16.40
2018-04-23T06:47:58.839Z,13.20
2018-04-23T06:50:31.601Z,14.23
2018-04-23T06:53:00.133Z,17.07
2018-04-23T06:55:33.870Z,13.33
2018-04-23T06:58:03.210Z,18.33
2018-04-23T07:00:45.863Z,16.70
2018-04-23T07:03:14.368Z,12.03
2018-04-23T07:05:44.907Z,13.90
2018-04-23T07:08:13.928Z,18.97
2018-04-23T07:10:43.261Z,12.30
2018-04-23T07:13:13.086Z,17.03
2018-04-23T07:15:45.175Z,17.70
2018-04-23T07:18:14.475Z,18.50
2018-04-23T07:33:53.125Z,16.30
2018-04-23T07:36:22.102Z,15.47
2018-04-23T07:39:05.777Z,18.40
2018-04-23T07:41:34.304Z,12.07
2018-04-23T07:44:03.250Z,15.93
2018-04-23T07:46:31.767Z,17.93
2018-04-23T07:49:01.073Z,16.80
2018-04-23T07:51:30.382Z,15.70
2018-04-23T07:54:05.109Z,17.43
2018-04-23T07:56:34.380Z,16.70
2018-04-23T07:59:06.718Z,14.23
2018-04-23T08:01:36.547Z,21.37
2018-04-23T08:04:08.929Z,17.47
2018-04-23T08:06:38.645Z,14.50
2018-04-23T08:09:12.497Z,15.53
2018-04-23T08:11:41.086Z,17.67
2018-04-23T08:14:15.272Z,15.63
2018-04-23T08:16:47.398Z,19.77
2018-04-23T08:19:17.055Z,15.50
2018-04-23T08:21:45.589Z,22.00
2018-04-23T08:24:27.602Z,18.03
2018-04-23T08:26:57.603Z,21.70
2018-04-23T08:29:26.919Z,18.40
2018-04-23T08:31:56.530Z,17.50
2018-04-23T08:34:26.961Z,19.37
2018-04-23T08:36:55.532Z,21.00
2018-04-23T08:39:24.863Z,16.73
2018-04-23T08:41:53.903Z,16.20
2018-04-23T08:44:27.251Z,17.70
2018-04-23T08:46:56.552Z,17.57
2018-04-23T08:49:30.443Z,17.10
2018-04-23T08:51:59.793Z,16.50
2018-04-23T08:54:32.033Z,15.13
2018-04-23T08:57:02.428Z,17.30
2018-04-23T08:59:33.678Z,18.07
2018-04-23T09:02:02.962Z,13.33
2018-04-23T09:04:35.258Z,14.83
2018-04-23T09:07:04.604Z,16.53
2018-04-23T09:09:46.032Z,15.97
2018-04-23T09:12:15.352Z,14.83
2018-04-23T09:14:44.720Z,14.50
2018-04-23T09:17:13.245Z,15.90
2018-04-23T09:19:43.233Z,13.87
2018-04-23T09:22:13.376Z,13.83
2018-04-23T09:24:55.418Z,16.80
2018-04-23T09:27:23.938Z,16.90
2018-04-23T09:29:53.236Z,18.77
2018-04-23T09:32:22.789Z,15.47
2018-04-23T09:34:52.339Z,17.43
2018-04-23T09:37:22.736Z,19.50
2018-04-23T09:39:52.887Z,21.93
2018-04-23T09:42:22.194Z,19.80
2018-04-23T09:44:54.653Z,17.47
2018-04-23T09:47:23.578Z,15.47
2018-04-23T09:50:05.677Z,21.57
2018-04-23T09:52:35.382Z,19.83
2018-04-23T10:08:43.512Z,15.23
2018-04-23T10:11:12.787Z,13.47
2018-04-23T10:13:41.705Z,16.40
2018-04-23T10:16:12.227Z,12.30
2018-04-23T10:18:40.878Z,14.27
2018-04-23T10:21:14.596Z,15.30
2018-04-23T10:23:44.257Z,13.93
2018-04-23T10:26:15.989Z,16.23
2018-04-23T10:28:44.795Z,13.40
2018-04-23T10:31:18.070Z,14.80
2018-04-23T10:33:47.625Z,11.77
2018-04-23T10:36:21.020Z,8.80
2018-04-23T10:38:51.145Z,11.63
2018-04-23T10:41:22.269Z,10.90
2018-04-23T10:43:51.926Z,11.20
2018-04-23T10:46:24.588Z,7.10
2018-04-23T10:48:53.815Z,9.63
2018-04-23T10:51:28.078Z,8.30
2018-04-23T10:53:57.588Z,7.20
2018-04-23T10:56:30.392Z,9.73
2018-04-23T10:58:58.889Z,10.20
2018-04-23T11:01:31.678Z,5.93
2018-04-23T11:04:01.605Z,10.00
2018-04-23T11:06:35.457Z,8.17
2018-04-23T11:09:06.292Z,7.80
2018-04-23T11:11:37.203Z,9.30
2018-04-23T11:14:06.858Z,8.80
2018-04-23T11:16:42.635Z,10.80
2018-04-23T11:19:12.643Z,11.33
2018-04-23T11:21:43.086Z,7.93
2018-04-23T11:24:12.013Z,8.00
2018-04-23T11:26:44.660Z,9.57
2018-04-23T11:29:13.966Z,10.13
2018-04-23T11:31:47.977Z,10.20
2018-04-23T11:34:16.533Z,8.40
2018-04-23T11:36:49.844Z,9.37
2018-04-23T11:39:18.661Z,10.37
2018-04-23T11:41:51.365Z,11.53
2018-04-23T11:44:19.885Z,10.67
2018-04-23T11:46:52.796Z,8.70
2018-04-23T11:49:21.367Z,8.67
2018-04-23T11:51:49.881Z,7.77
2018-04-23T11:54:20.398Z,9.20
2018-04-23T11:56:48.900Z,9.83
2018-04-23T11:59:18.523Z,8.93
2018-04-23T12:01:47.264Z,8.87
2018-04-23T12:04:15.782Z,6.80
2018-04-23T12:06:45.061Z,9.07
2018-04-23T12:09:14.369Z,8.50
2018-04-23T12:11:44.429Z,12.13
2018-04-23T12:14:13.829Z,6.00
2018-04-23T12:16:43.456Z,7.93
2018-04-23T12:19:13.481Z,7.63
2018-04-23T12:21:42.050Z,6.47
2018-04-23T12:24:23.139Z,6.30
2018-04-23T12:26:51.694Z,8.10
2018-04-23T12:29:22.018Z,6.57
2018-04-23T12:31:50.542Z,7.70
2018-04-23T12:34:19.071Z,6.47
2018-04-23T12:36:48.610Z,8.53
2018-04-23T12:39:21.091Z,8.10
2018-04-23T12:41:50.801Z,8.10
2018-04-23T12:44:22.841Z,5.73
2018-04-23T12:46:52.375Z,6.47
2018-04-23T12:49:25.285Z,7.90
2018-04-23T12:51:55.585Z,7.17
2018-04-23T12:54:27.674Z,10.60
2018-04-23T12:56:56.996Z,7.43
2018-04-23T12:59:30.976Z,8.07
2018-04-23T13:01:59.527Z,6.30
2018-04-23T13:04:41.517Z,8.40
2018-04-23T13:07:10.346Z,7.03
2018-04-23T13:09:39.603Z,6.53
2018-04-23T13:12:08.501Z,7.80
2018-04-23T13:14:37.309Z,8.33
2018-04-23T13:17:05.864Z,6.93
2018-04-23T13:19:42.083Z,9.43
2018-04-23T13:22:11.904Z,8.57
2018-04-23T13:24:41.210Z,9.43
2018-04-23T13:27:09.754Z,8.10
2018-04-23T13:29:43.425Z,7.17
2018-04-23T13:32:13.257Z,6.63
2018-04-23T13:34:46.694Z,8.47
2018-04-23T13:37:16.270Z,10.40
2018-04-23T13:39:49.905Z,7.80
2018-04-23T13:42:19.285Z,8.23
2018-04-23T13:44:52.796Z,7.43
2018-04-23T13:47:21.336Z,10.77
2018-04-23T13:49:55.247Z,9.70
2018-04-23T13:52:24.165Z,7.07
2018-04-23T13:54:57.439Z,8.80
2018-04-23T13:57:26.263Z,8.60
2018-04-23T13:59:59.302Z,9.40
2018-04-23T14:02:29.076Z,9.17
2018-04-23T14:11:41.138Z,7.00
2018-04-23T14:14:10.489Z,10.60
2018-04-23T14:16:40.594Z,7.90
2018-04-23T14:19:10.847Z,10.63
2018-04-23T14:21:40.657Z,8.33
2018-04-23T14:24:12.777Z,7.53
2018-04-23T14:26:42.306Z,9.30
2018-04-23T14:29:24.155Z,14.13
2018-04-23T14:31:54.476Z,8.57
2018-04-23T14:34:23.377Z,9.13
2018-04-23T14:36:53.439Z,8.20
2018-04-23T14:39:23.346Z,9.70
2018-04-23T14:41:51.949Z,8.53
2018-04-23T14:44:22.503Z,11.43
2018-04-23T14:46:51.688Z,8.80
2018-04-23T14:49:24.849Z,8.80
2018-04-23T14:51:53.431Z,10.53
2018-04-23T14:54:25.555Z,9.93
2018-04-23T14:56:54.495Z,11.53
2018-04-23T14:59:28.037Z,11.67
2018-04-23T15:01:56.905Z,8.30
2018-04-23T15:04:29.446Z,7.83
2018-04-23T15:06:58.462Z,8.53
2018-04-23T15:09:34.061Z,6.03
2018-04-23T15:12:03.384Z,10.77
2018-04-23T15:14:34.408Z,9.20
2018-04-23T15:17:03.520Z,10.33
2018-04-23T15:19:44.882Z,7.77
2018-04-23T15:22:14.770Z,8.73
2018-04-23T15:24:45.396Z,9.37
2018-04-23T15:27:14.422Z,9.93
2018-04-23T15:29:44.805Z,9.07
2018-04-23T15:32:13.672Z,8.43
2018-04-23T15:34:43.220Z,10.17
2018-04-23T15:37:12.257Z,8.97
2018-04-23T15:39:45.001Z,8.07
2018-04-23T15:42:14.574Z,8.93
2018-04-23T15:44:49.465Z,12.03
2018-04-23T15:47:18.408Z,7.23
2018-04-23T15:49:51.933Z,7.87
2018-04-23T15:52:21.543Z,6.57
2018-04-23T15:54:53.844Z,8.20
2018-04-23T15:57:23.388Z,10.10
2018-04-23T15:59:57.045Z,9.17
2018-04-23T16:02:27.525Z,7.53
2018-04-23T16:04:59.164Z,5.53
2018-04-23T16:07:28.445Z,7.23
2018-04-23T16:10:09.941Z,8.17
2018-04-23T16:12:38.762Z,5.53
2018-04-23T16:15:07.312Z,7.23
2018-04-23T16:17:36.684Z,10.17
2018-04-23T16:20:06.824Z,6.53
2018-04-23T16:22:36.143Z,8.10
2018-04-23T16:25:13.262Z,4.77
2018-04-23T16:27:42.517Z,4.33
2018-04-23T16:30:13.586Z,7.87
2018-04-23T16:32:43.606Z,8.37
2018-04-23T16:35:15.001Z,5.97
2018-04-23T16:37:44.573Z,7.23
2018-04-23T16:40:16.599Z,9.53
2018-04-23T16:42:47.137Z,6.63
2018-04-23T16:45:19.988Z,7.20
2018-04-23T16:47:48.536Z,6.53
2018-04-23T16:50:29.780Z,6.63
2018-04-23T16:52:59.818Z,10.97
2018-04-23T16:55:28.798Z,10.43
2018-04-23T16:57:57.641Z,6.73
2018-04-23T17:00:26.256Z,8.57
2018-04-23T17:02:54.868Z,8.43
2018-04-23T17:05:27.964Z,8.23
2018-04-23T17:07:57.496Z,9.27
2018-04-23T17:10:29.925Z,8.50
2018-04-23T17:12:58.732Z,6.80
2018-04-23T17:15:31.237Z,10.37
2018-04-23T17:17:59.789Z,11.23
2018-04-23T17:20:33.434Z,9.97
2018-04-23T17:23:02.437Z,8.20
2018-04-23T17:25:44.507Z,8.57
2018-04-23T17:28:14.126Z,6.93
2018-04-23T17:30:44.154Z,7.37
2018-04-23T17:33:17.396Z,8.50
2018-04-23T17:35:47.240Z,9.50
2018-04-23T17:38:15.757Z,8.67
2018-04-23T17:40:45.087Z,8.43
2018-04-23T17:43:14.633Z,11.77
2018-04-23T17:45:47.124Z,13.37
2018-04-23T17:48:16.101Z,7.93
2018-04-23T17:50:48.664Z,9.83
2018-04-23T17:53:19.893Z,8.03
2018-04-23T17:55:50.986Z,7.03
2018-04-23T17:58:20.592Z,7.67
2018-04-23T18:00:52.033Z,5.27
2018-04-23T18:03:22.982Z,4.43
2018-04-23T18:05:56.155Z,5.97
2018-04-23T18:08:25.805Z,10.30
2018-04-23T18:11:06.823Z,7.90
2018-04-23T18:13:35.829Z,6.97
2018-04-23T18:16:04.925Z,7.53
2018-04-23T18:18:34.518Z,7.90
2018-04-23T18:21:04.166Z,6.57
2018-04-23T18:23:33.796Z,10.13
2018-04-23T18:26:07.064Z,10.07
2018-04-23T18:28:36.635Z,9.93
2018-04-23T18:31:17.649Z,3.73
2018-04-23T18:33:46.868Z,8.03
2018-04-23T18:36:15.446Z,9.90
2018-04-23T18:38:44.027Z,4.97
2018-04-23T18:41:14.873Z,7.23
2018-04-23T18:43:43.771Z,10.37
2018-04-23T18:46:14.996Z,6.10
2018-04-23T18:48:43.525Z,5.13
2018-04-23T18:51:18.496Z,5.80
2018-04-23T18:53:47.308Z,3.87
2018-04-23T18:56:20.433Z,6.60
2018-04-23T18:58:49.805Z,9.40
2018-04-23T19:01:22.780Z,6.30
2018-04-23T19:03:52.489Z,9.70
2018-04-23T19:06:25.222Z,5.93
2018-04-23T19:08:53.755Z,8.13
2018-04-23T19:11:35.076Z,9.10
2018-04-23T19:14:04.394Z,9.60
2018-04-23T19:16:33.980Z,6.87
2018-04-23T19:19:05.417Z,7.27
2018-04-23T19:21:34.377Z,6.03
2018-04-23T19:24:04.151Z,7.70
2018-04-23T19:26:34.675Z,7.33
2018-04-23T19:29:04.760Z,8.70
2018-04-23T19:31:37.322Z,5.50
2018-04-23T19:34:06.563Z,8.73
2018-04-23T19:36:47.942Z,3.93
2018-04-23T19:39:16.737Z,5.57
2018-04-23T19:41:46.288Z,9.53
2018-04-23T19:44:15.317Z,9.10
2018-04-23T19:46:44.660Z,7.87
2018-04-23T19:49:14.160Z,7.17
2018-04-23T19:51:47.009Z,7.03
2018-04-23T19:54:16.081Z,5.50
2018-04-23T19:56:48.868Z,9.07
2018-04-23T19:59:17.519Z,9.53
2018-04-23T20:01:51.548Z,9.97
2018-04-23T20:04:20.174Z,6.97
2018-04-23T20:06:53.864Z,8.27
2018-04-23T20:09:23.818Z,10.37
2018-04-23T20:11:58.565Z,9.57
2018-04-23T20:14:28.626Z,7.77
2018-04-23T20:16:59.142Z,10.23
2018-04-23T20:19:28.798Z,6.73
2018-04-23T20:22:01.902Z,6.27
2018-04-23T20:24:31.925Z,6.80
2018-04-23T20:27:05.740Z,6.23
2018-04-23T20:29:34.516Z,5.27
2018-04-23T20:32:07.284Z,7.83
2018-04-23T20:34:36.562Z,9.67
2018-04-23T20:37:18.999Z,6.33
2018-04-23T20:39:48.706Z,9.30
2018-04-23T20:42:18.753Z,7.47
2018-04-23T20:44:47.308Z,5.13
2018-04-23T20:47:16.617Z,6.87
2018-04-23T20:49:46.990Z,7.97
2018-04-23T20:52:17.168Z,5.10
2018-04-23T20:54:45.711Z,5.03
2018-04-23T20:57:18.759Z,5.70
2018-04-23T20:59:47.313Z,6.37
2018-04-23T21:02:21.412Z,8.03
2018-04-23T21:04:50.794Z,5.40
2018-04-23T21:07:24.310Z,9.80
2018-04-23T21:09:54.277Z,6.97
2018-04-23T21:12:25.556Z,6.43
2018-04-23T21:14:54.430Z,7.57
2018-04-23T21:17:28.594Z,6.77
2018-04-23T21:19:57.529Z,7.63
2018-04-23T21:22:30.407Z,6.97
2018-04-23T21:24:59.635Z,7.33
2018-04-23T21:27:30.894Z,5.53
2018-04-23T21:29:59.422Z,6.23
2018-04-23T21:32:33.572Z,7.73
2018-04-23T21:35:03.431Z,4.73
2018-04-23T21:37:44.780Z,5.43
2018-04-23T21:40:14.114Z,5.53
2018-04-23T21:42:43.790Z,8.60
2018-04-23T21:45:14.072Z,4.83
2018-04-23T21:47:44.003Z,6.40
2018-04-23T21:50:12.709Z,3.90
2018-04-23T21:52:44.555Z,8.23
2018-04-23T21:55:15.025Z,7.47
2018-04-23T21:57:46.982Z,7.50
2018-04-23T22:00:16.556Z,6.03
2018-04-23T22:02:57.518Z,4.40
2018-04-23T22:05:27.211Z,7.17
2018-04-23T22:07:56.977Z,7.70
2018-04-23T22:10:27.272Z,5.90
2018-04-23T22:12:56.007Z,3.63
2018-04-23T22:15:24.575Z,5.10
2018-04-23T22:17:56.513Z,7.20
2018-04-23T22:20:25.925Z,4.83
2018-04-23T22:22:59.343Z,5.90
2018-04-23T22:25:28.965Z,3.90
2018-04-23T22:28:03.462Z,5.50
2018-04-23T22:30:33.057Z,4.97
2018-04-23T22:33:04.867Z,8.30
2018-04-23T22:35:34.430Z,5.10
2018-04-23T22:38:07.621Z,5.47
2018-04-23T22:40:37.705Z,6.93
2018-04-23T22:43:11.485Z,4.97
2018-04-23T22:45:40.085Z,5.63
2018-04-23T22:48:12.771Z,5.33
2018-04-23T22:50:41.572Z,6.00
2018-04-23T22:53:14.560Z,6.03
2018-04-23T22:55:43.969Z,8.80
2018-04-23T22:58:17.409Z,7.57
2018-04-23T23:00:45.959Z,6.63
2018-04-23T23:03:28.326Z,5.83
2018-04-23T23:05:57.194Z,3.43
2018-04-23T23:08:26.154Z,6.17
2018-04-23T23:10:55.764Z,5.87
2018-04-23T23:13:24.690Z,6.67
2018-04-23T23:15:53.960Z,10.90
2018-04-23T23:18:25.568Z,4.10
2018-04-23T23:20:54.080Z,5.90
2018-04-23T23:23:28.215Z,4.70
2018-04-23T23:25:58.259Z,5.03
2018-04-23T23:28:30.388Z,7.30
2018-04-23T23:31:00.150Z,4.40
2018-04-23T23:33:31.965Z,7.83
2018-04-23T23:36:02.670Z,2.90
2018-04-23T23:38:34.644Z,4.77
2018-04-23T23:41:04.504Z,6.17
2018-04-23T23:43:37.852Z,6.57
2018-04-23T23:46:07.153Z,5.87
2018-04-23T23:48:40.305Z,3.73
2018-04-23T23:51:09.149Z,3.87
2018-04-23T23:53:42.954Z,4.03
2018-04-23T23:56:12.281Z,6.33
2018-04-23T23:58:43.946Z,3.03
